createdAt,value
2023-05-17T00:00:56.262Z,3.90
2023-05-17T00:03:22.988Z,3.80
2023-05-17T00:05:50.047Z,3.33
2023-05-17T00:08:16.811Z,4.22
2023-05-17T00:10:43.580Z,3.72
2023-05-17T00:13:10.675Z,3.08
2023-05-17T00:15:37.415Z,3.20
2023-05-17T00:18:04.354Z,4.20
2023-05-17T00:20:31.265Z,3.63
2023-05-17T00:22:58.051Z,4.00
2023-05-17T00:25:24.791Z,3.67
2023-05-17T00:27:51.737Z,3.67
2023-05-17T00:30:18.558Z,3.70
2023-05-17T00:32:46.822Z,3.80
2023-05-17T00:35:14.166Z,3.85
2023-05-17T00:37:41.397Z,3.35
2023-05-17T00:40:09.213Z,3.27
2023-05-17T00:42:36.401Z,3.75
2023-05-17T00:45:03.424Z,3.53
2023-05-17T00:47:30.249Z,3.80
2023-05-17T00:49:57.151Z,3.67
2023-05-17T00:52:24.294Z,4.53
2023-05-17T00:54:51.960Z,3.50
2023-05-17T00:57:18.894Z,3.58
2023-05-17T00:59:46.031Z,4.32
2023-05-17T01:02:12.967Z,4.28
2023-05-17T01:04:41.581Z,3.77
2023-05-17T01:07:09.819Z,3.95
2023-05-17T01:09:38.139Z,4.13
2023-05-17T01:12:29.868Z,3.45
2023-05-17T01:15:13.925Z,3.80
2023-05-17T01:17:46.796Z,4.60
2023-05-17T01:20:38.291Z,4.20
2023-05-17T01:23:31.325Z,3.90
2023-05-17T01:26:13.938Z,3.60
2023-05-17T01:28:43.914Z,4.00
2023-05-17T01:31:12.271Z,3.63
2023-05-17T01:33:39.913Z,3.78
2023-05-17T01:36:08.488Z,3.35
2023-05-17T01:38:35.623Z,4.03
2023-05-17T01:41:23.870Z,4.35
2023-05-17T01:43:59.315Z,3.97
2023-05-17T01:46:36.962Z,3.80
2023-05-17T01:49:12.573Z,3.50
2023-05-17T01:51:49.154Z,4.50
2023-05-17T01:54:21.877Z,4.00
2023-05-17T01:56:56.634Z,4.07
2023-05-17T01:59:25.443Z,4.13
2023-05-17T02:02:06.225Z,3.83
2023-05-17T02:04:33.160Z,3.40
2023-05-17T02:07:02.738Z,4.00
2023-05-17T02:09:29.864Z,3.20
2023-05-17T02:11:56.999Z,3.90
2023-05-17T02:14:23.755Z,4.10
2023-05-17T02:16:50.891Z,3.75
2023-05-17T02:19:17.691Z,4.35
2023-05-17T02:21:44.408Z,4.87
2023-05-17T02:24:11.120Z,4.50
2023-05-17T02:26:42.681Z,4.32
2023-05-17T02:29:11.153Z,4.53
2023-05-17T02:31:38.048Z,4.60
2023-05-17T02:34:04.919Z,4.27
2023-05-17T02:36:32.534Z,4.20
2023-05-17T02:38:59.628Z,3.30
2023-05-17T02:41:26.424Z,3.38
2023-05-17T02:43:53.259Z,4.00
2023-05-17T02:46:20.038Z,4.20
2023-05-17T02:48:46.781Z,3.33
2023-05-17T02:51:13.707Z,4.53
2023-05-17T02:53:40.919Z,3.40
2023-05-17T02:56:08.326Z,3.92
2023-05-17T02:58:35.068Z,4.70
2023-05-17T03:01:02.042Z,4.13
2023-05-17T03:03:30.405Z,5.55
2023-05-17T03:06:02.227Z,4.25
2023-05-17T03:08:29.537Z,4.70
2023-05-17T03:10:57.393Z,4.40
2023-05-17T03:13:24.249Z,4.35
2023-05-17T03:15:51.258Z,4.68
2023-05-17T03:18:18.221Z,4.18
2023-05-17T03:20:45.242Z,4.20
2023-05-17T03:23:12.117Z,5.13
2023-05-17T03:25:48.873Z,3.55
2023-05-17T03:28:15.808Z,3.72
2023-05-17T03:30:44.349Z,3.97
2023-05-17T03:33:11.483Z,4.13
2023-05-17T03:35:38.531Z,3.80
2023-05-17T03:38:05.427Z,4.00
2023-05-17T03:40:32.708Z,3.50
2023-05-17T03:43:00.567Z,3.75
2023-05-17T03:45:28.824Z,3.22
2023-05-17T03:47:56.178Z,4.10
2023-05-17T03:50:23.297Z,4.47
2023-05-17T03:52:50.657Z,3.20
2023-05-17T03:55:18.495Z,3.60
2023-05-17T03:57:45.433Z,4.13
2023-05-17T04:00:13.213Z,3.93
2023-05-17T04:02:42.915Z,4.00
2023-05-17T04:05:10.853Z,3.85
2023-05-17T04:07:37.670Z,4.18
2023-05-17T04:10:05.527Z,3.00
2023-05-17T04:12:32.316Z,3.17
2023-05-17T04:14:59.309Z,4.70
2023-05-17T04:17:26.179Z,3.15
2023-05-17T04:19:53.292Z,3.22
2023-05-17T04:22:21.817Z,2.50
2023-05-17T04:24:48.916Z,3.10
2023-05-17T04:27:16.012Z,2.35
2023-05-17T04:29:43.231Z,2.67
2023-05-17T04:32:10.030Z,2.22
2023-05-17T04:34:37.865Z,2.42
2023-05-17T04:37:06.046Z,2.20
2023-05-17T04:39:34.997Z,2.72
2023-05-17T04:42:02.323Z,2.47
2023-05-17T04:44:29.216Z,2.17
2023-05-17T04:46:56.570Z,2.03
2023-05-17T04:49:25.090Z,2.97
2023-05-17T04:51:52.278Z,2.10
2023-05-17T04:54:19.159Z,2.25
2023-05-17T04:56:45.933Z,2.13
2023-05-17T04:59:19.663Z,1.65
2023-05-17T05:01:46.713Z,2.27
2023-05-17T05:04:13.774Z,2.58
2023-05-17T05:06:43.218Z,2.08
2023-05-17T05:09:10.267Z,2.50
2023-05-17T05:11:38.592Z,2.10
2023-05-17T05:14:06.297Z,3.33
2023-05-17T05:16:33.697Z,2.65
2023-05-17T05:19:00.827Z,2.25
2023-05-17T05:21:27.711Z,2.30
2023-05-17T05:23:55.055Z,2.30
2023-05-17T05:26:21.864Z,3.13
2023-05-17T05:28:49.472Z,2.20
2023-05-17T05:31:16.401Z,1.92
2023-05-17T05:33:50.008Z,1.95
2023-05-17T05:36:16.904Z,2.78
2023-05-17T05:38:43.762Z,2.23
2023-05-17T05:41:10.526Z,2.83
2023-05-17T05:43:37.802Z,2.22
2023-05-17T05:46:04.881Z,2.42
2023-05-17T05:48:31.889Z,2.55
2023-05-17T05:50:58.753Z,2.13
2023-05-17T05:53:25.610Z,2.35
2023-05-17T05:55:54.962Z,3.42
2023-05-17T05:58:21.746Z,2.17
2023-05-17T06:00:49.488Z,2.83
2023-05-17T06:03:16.360Z,2.07
2023-05-17T06:05:43.261Z,2.58
2023-05-17T06:08:10.050Z,1.92
2023-05-17T06:10:37.037Z,2.63
2023-05-17T06:13:03.928Z,2.13
2023-05-17T06:15:31.903Z,2.27
2023-05-17T06:17:59.212Z,1.80
2023-05-17T06:20:26.197Z,2.22
2023-05-17T06:22:53.174Z,1.83
2023-05-17T06:25:19.994Z,2.83
2023-05-17T06:27:46.812Z,1.73
2023-05-17T06:30:14.104Z,1.52
2023-05-17T06:32:41.538Z,1.80
2023-05-17T06:35:08.895Z,2.05
2023-05-17T06:37:35.690Z,1.48
2023-05-17T06:40:15.022Z,2.60
2023-05-17T06:42:42.756Z,1.83
2023-05-17T06:45:10.211Z,1.95
2023-05-17T06:47:38.162Z,2.47
2023-05-17T06:50:05.696Z,2.58
2023-05-17T06:52:32.707Z,2.03
2023-05-17T06:54:59.477Z,1.92
2023-05-17T06:57:26.526Z,2.33
2023-05-17T06:59:53.334Z,2.72
2023-05-17T07:02:20.219Z,2.28
2023-05-17T07:04:47.098Z,1.60
2023-05-17T07:07:13.917Z,2.03
2023-05-17T07:09:41.311Z,2.00
2023-05-17T07:12:08.192Z,2.00
2023-05-17T07:14:35.008Z,2.20
2023-05-17T07:17:01.831Z,2.07
2023-05-17T07:19:28.767Z,1.40
2023-05-17T07:21:55.671Z,1.98
2023-05-17T07:24:22.750Z,2.03
2023-05-17T07:26:51.482Z,1.85
2023-05-17T07:29:18.964Z,1.93
2023-05-17T07:31:45.742Z,2.08
2023-05-17T07:34:13.798Z,1.55
2023-05-17T07:36:40.850Z,1.88
2023-05-17T07:39:08.747Z,1.42
2023-05-17T07:41:36.148Z,2.47
2023-05-17T07:44:02.977Z,1.58
2023-05-17T07:46:29.776Z,3.83
2023-05-17T07:48:58.597Z,2.10
2023-05-17T07:51:26.361Z,1.30
2023-05-17T07:53:53.352Z,1.60
2023-05-17T07:56:20.188Z,1.70
2023-05-17T07:58:47.066Z,1.70
2023-05-17T08:01:13.851Z,1.77
2023-05-17T08:03:47.666Z,2.03
2023-05-17T08:06:18.098Z,1.57
2023-05-17T08:08:45.252Z,1.80
2023-05-17T08:11:13.494Z,1.70
2023-05-17T08:13:40.284Z,2.05
2023-05-17T08:16:14.227Z,1.83
2023-05-17T08:18:43.079Z,1.57
2023-05-17T08:21:11.154Z,2.20
2023-05-17T08:23:38.086Z,2.90
2023-05-17T08:26:04.838Z,2.47
2023-05-17T08:28:32.028Z,2.10
2023-05-17T08:30:58.802Z,1.80
2023-05-17T08:33:26.353Z,2.13
2023-05-17T08:35:55.271Z,1.23
2023-05-17T08:38:22.615Z,2.10
2023-05-17T08:40:56.299Z,1.67
2023-05-17T08:43:27.483Z,2.53
2023-05-17T08:45:57.782Z,2.00
2023-05-17T08:48:26.579Z,2.00
2023-05-17T08:50:55.773Z,1.75
2023-05-17T08:53:23.576Z,1.77
2023-05-17T08:55:51.312Z,1.73
2023-05-17T08:58:21.429Z,3.30
2023-05-17T09:00:50.121Z,1.83
2023-05-17T09:03:19.057Z,1.55
2023-05-17T09:05:46.389Z,1.90
2023-05-17T09:08:14.246Z,1.77
2023-05-17T09:10:41.782Z,1.60
2023-05-17T09:13:11.554Z,1.15
2023-05-17T09:15:38.381Z,2.33
2023-05-17T09:18:05.336Z,1.50
2023-05-17T09:20:39.423Z,1.60
2023-05-17T09:23:09.641Z,1.92
2023-05-17T09:25:37.382Z,1.70
2023-05-17T09:28:08.513Z,1.38
2023-05-17T09:30:39.578Z,1.60
2023-05-17T09:33:07.912Z,1.77
2023-05-17T09:35:36.632Z,1.40
2023-05-17T09:38:13.851Z,2.17
2023-05-17T09:40:45.675Z,1.15
2023-05-17T09:43:13.308Z,1.52
2023-05-17T09:45:40.353Z,1.60
2023-05-17T09:48:27.713Z,1.38
2023-05-17T09:50:54.736Z,1.92
2023-05-17T09:53:40.023Z,2.08
2023-05-17T09:56:07.383Z,1.40
2023-05-17T09:58:37.382Z,1.83
2023-05-17T10:01:07.269Z,1.85
2023-05-17T10:03:36.074Z,1.55
2023-05-17T10:06:06.901Z,1.40
2023-05-17T10:08:34.586Z,1.27
2023-05-17T10:11:11.231Z,1.40
2023-05-17T10:13:44.443Z,1.73
2023-05-17T10:16:12.894Z,1.23
2023-05-17T10:18:41.150Z,1.50
2023-05-17T10:21:09.003Z,1.38
2023-05-17T10:23:36.796Z,1.60
2023-05-17T10:26:04.411Z,1.33
2023-05-17T10:28:32.968Z,2.35
2023-05-17T10:31:01.135Z,1.50
2023-05-17T10:33:28.224Z,1.80
2023-05-17T10:35:56.324Z,1.60
2023-05-17T10:38:32.002Z,1.73
2023-05-17T10:41:06.489Z,2.40
2023-05-17T10:43:34.303Z,1.73
2023-05-17T10:46:03.866Z,2.03
2023-05-17T10:48:34.955Z,1.80
2023-05-17T10:51:07.384Z,1.20
2023-05-17T10:53:34.307Z,2.10
2023-05-17T10:56:01.037Z,1.65
2023-05-17T10:58:28.688Z,1.85
2023-05-17T11:00:56.411Z,1.70
2023-05-17T11:03:30.691Z,1.52
2023-05-17T11:06:25.371Z,1.50
2023-05-17T11:09:16.427Z,1.63
2023-05-17T11:12:09.285Z,2.05
2023-05-17T11:14:45.225Z,2.73
2023-05-17T11:17:34.516Z,1.73
2023-05-17T11:20:06.710Z,2.03
2023-05-17T11:22:37.384Z,1.90
2023-05-17T11:25:08.540Z,1.52
2023-05-17T11:27:44.364Z,1.93
2023-05-17T11:30:30.518Z,1.70
2023-05-17T11:33:11.094Z,2.33
2023-05-17T11:35:48.795Z,2.38
2023-05-17T11:38:24.400Z,1.45
2023-05-17T11:40:54.693Z,2.30
2023-05-17T11:43:23.304Z,1.90
2023-05-17T11:45:58.596Z,2.60
2023-05-17T11:48:26.635Z,1.80
2023-05-17T11:50:55.467Z,2.03
2023-05-17T11:53:23.025Z,1.50
2023-05-17T11:55:51.782Z,2.30
2023-05-17T11:58:25.281Z,2.70
2023-05-17T12:00:56.760Z,2.30
2023-05-17T12:03:25.787Z,2.15
2023-05-17T12:06:04.369Z,2.20
2023-05-17T12:08:34.139Z,2.00
2023-05-17T12:11:02.109Z,2.00
2023-05-17T12:13:30.368Z,2.03
2023-05-17T12:15:59.735Z,1.63
2023-05-17T12:18:40.975Z,1.90
2023-05-17T12:21:09.984Z,1.73
2023-05-17T12:23:40.526Z,1.90
2023-05-17T12:26:12.520Z,2.05
2023-05-17T12:28:41.262Z,2.47
2023-05-17T12:31:16.765Z,1.90
2023-05-17T12:33:44.831Z,1.77
2023-05-17T12:36:12.685Z,1.70
2023-05-17T12:38:44.411Z,1.90
2023-05-17T12:41:12.782Z,1.60
2023-05-17T12:43:40.547Z,2.17
2023-05-17T12:46:09.377Z,2.40
2023-05-17T12:48:46.407Z,2.00
2023-05-17T12:51:17.199Z,1.90
2023-05-17T12:53:57.514Z,1.70
2023-05-17T12:56:27.744Z,2.17
2023-05-17T12:59:11.555Z,2.50
2023-05-17T13:01:49.883Z,1.80
2023-05-17T13:04:18.230Z,1.88
2023-05-17T13:06:49.157Z,1.70
2023-05-17T13:09:18.536Z,1.90
2023-05-17T13:11:55.504Z,2.03
2023-05-17T13:14:38.992Z,1.92
2023-05-17T13:17:07.854Z,1.77
2023-05-17T13:19:38.259Z,2.10
2023-05-17T13:22:06.483Z,1.70
2023-05-17T13:24:39.544Z,1.88
2023-05-17T13:27:07.236Z,1.90
2023-05-17T13:29:40.196Z,1.60
2023-05-17T13:32:08.711Z,2.10
2023-05-17T13:34:36.233Z,2.40
2023-05-17T13:37:03.370Z,2.38
2023-05-17T13:39:30.290Z,2.17
2023-05-17T13:41:57.447Z,2.22
2023-05-17T13:44:24.526Z,1.92
2023-05-17T13:46:51.412Z,2.27
2023-05-17T13:49:18.261Z,2.10
2023-05-17T13:51:45.846Z,1.88
2023-05-17T13:54:12.676Z,2.33
2023-05-17T13:56:39.420Z,2.25
2023-05-17T13:59:06.179Z,2.30
2023-05-17T14:01:32.979Z,2.67
2023-05-17T14:04:00.845Z,2.17
2023-05-17T14:06:28.116Z,2.03
2023-05-17T14:08:55.898Z,1.80
2023-05-17T14:11:22.831Z,2.37
2023-05-17T14:13:49.882Z,2.42
2023-05-17T14:16:16.678Z,2.00
2023-05-17T14:18:43.608Z,2.08
2023-05-17T14:21:10.567Z,2.30
2023-05-17T14:23:37.721Z,2.50
2023-05-17T14:26:07.431Z,2.53
2023-05-17T14:28:37.978Z,2.05
2023-05-17T14:31:06.923Z,1.92
2023-05-17T14:33:34.259Z,1.92
2023-05-17T14:36:01.369Z,1.90
2023-05-17T14:38:28.184Z,2.25
2023-05-17T14:40:55.096Z,1.65
2023-05-17T14:43:22.464Z,2.05
2023-05-17T14:45:49.303Z,1.50
2023-05-17T14:48:16.304Z,2.20
2023-05-17T14:50:43.253Z,2.30
2023-05-17T14:53:10.039Z,1.83
2023-05-17T14:55:36.949Z,2.40
2023-05-17T14:58:03.679Z,2.05
2023-05-17T15:00:30.451Z,1.97
2023-05-17T15:02:57.968Z,1.73
2023-05-17T15:05:25.109Z,2.10
2023-05-17T15:07:52.652Z,2.67
2023-05-17T15:10:19.623Z,2.07
2023-05-17T15:12:47.284Z,1.90
2023-05-17T15:15:14.223Z,2.33
2023-05-17T15:17:41.457Z,2.45
2023-05-17T15:20:09.052Z,2.42
2023-05-17T15:22:36.582Z,2.63
2023-05-17T15:25:04.054Z,2.93
2023-05-17T15:27:30.836Z,2.00
2023-05-17T15:29:57.646Z,2.20
2023-05-17T15:32:24.435Z,3.08
2023-05-17T15:34:52.632Z,2.03
2023-05-17T15:37:19.447Z,2.73
2023-05-17T15:39:46.436Z,3.03
2023-05-17T15:42:13.213Z,2.28
2023-05-17T15:44:39.966Z,1.98
2023-05-17T15:47:06.812Z,2.17
2023-05-17T15:49:33.786Z,2.43
2023-05-17T15:52:00.699Z,2.17
2023-05-17T15:54:27.495Z,2.38
2023-05-17T15:56:54.264Z,2.30
2023-05-17T15:59:21.026Z,2.67
2023-05-17T16:01:47.944Z,1.90
2023-05-17T16:04:15.213Z,2.05
2023-05-17T16:06:42.145Z,1.65
2023-05-17T16:09:09.001Z,1.73
2023-05-17T16:11:36.111Z,2.15
2023-05-17T16:14:02.911Z,2.10
2023-05-17T16:16:29.764Z,2.53
2023-05-17T16:18:57.744Z,1.90
2023-05-17T16:21:25.084Z,2.20
2023-05-17T16:23:51.991Z,1.98
2023-05-17T16:26:19.004Z,2.27
2023-05-17T16:28:45.966Z,2.63
2023-05-17T16:31:12.904Z,2.75
2023-05-17T16:33:41.316Z,2.80
2023-05-17T16:36:08.920Z,2.28
2023-05-17T16:38:35.836Z,2.60
2023-05-17T16:41:03.343Z,2.30
2023-05-17T16:43:30.963Z,2.10
2023-05-17T16:45:57.789Z,2.33
2023-05-17T16:48:24.731Z,2.83
2023-05-17T16:50:51.922Z,2.57
2023-05-17T16:53:18.784Z,2.40
2023-05-17T16:55:45.736Z,2.90
2023-05-17T16:58:13.109Z,4.03
2023-05-17T17:00:39.964Z,2.95
2023-05-17T17:03:09.600Z,2.43
2023-05-17T17:05:37.176Z,2.65
2023-05-17T17:08:04.118Z,2.30
2023-05-17T17:10:31.447Z,2.90
2023-05-17T17:12:58.488Z,2.35
2023-05-17T17:15:25.325Z,2.77
2023-05-17T17:17:52.335Z,2.47
2023-05-17T17:20:19.682Z,2.90
2023-05-17T17:22:46.828Z,3.70
2023-05-17T17:25:13.716Z,2.28
2023-05-17T17:27:40.745Z,2.03
2023-05-17T17:30:08.150Z,2.10
2023-05-17T17:32:35.074Z,2.35
2023-05-17T17:35:02.127Z,2.67
2023-05-17T17:37:28.868Z,2.85
2023-05-17T17:39:55.915Z,2.20
2023-05-17T17:42:22.688Z,1.95
2023-05-17T17:44:49.545Z,2.35
2023-05-17T17:47:16.408Z,2.13
2023-05-17T17:49:43.212Z,1.95
2023-05-17T17:52:10.017Z,2.60
2023-05-17T17:54:36.948Z,2.70
2023-05-17T17:57:03.871Z,2.13
2023-05-17T17:59:30.719Z,4.20
2023-05-17T18:01:59.475Z,5.32
2023-05-17T18:04:26.857Z,7.37
2023-05-17T18:06:54.753Z,7.75
2023-05-17T18:09:23.015Z,3.88
2023-05-17T18:11:49.922Z,3.40
2023-05-17T18:14:16.644Z,1.92
2023-05-17T18:16:43.580Z,2.50
2023-05-17T18:19:10.615Z,1.67
2023-05-17T18:21:37.431Z,2.30
2023-05-17T18:24:04.482Z,2.53
2023-05-17T18:26:31.237Z,2.50
2023-05-17T18:28:58.040Z,2.30
2023-05-17T18:31:24.887Z,1.98
2023-05-17T18:33:51.637Z,2.33
2023-05-17T18:36:18.372Z,2.13
2023-05-17T18:38:45.156Z,3.53
2023-05-17T18:41:11.903Z,2.03
2023-05-17T18:43:38.712Z,3.38
2023-05-17T18:46:05.484Z,1.73
2023-05-17T18:48:35.987Z,2.20
2023-05-17T18:51:03.101Z,2.00
2023-05-17T18:53:29.913Z,2.53
2023-05-17T18:56:01.358Z,1.98
2023-05-17T18:58:29.222Z,1.77
2023-05-17T19:00:56.246Z,1.40
2023-05-17T19:03:23.060Z,2.03
2023-05-17T19:05:49.940Z,2.17
2023-05-17T19:08:16.677Z,1.63
2023-05-17T19:10:43.539Z,2.10
2023-05-17T19:13:11.129Z,1.70
2023-05-17T19:15:38.068Z,2.38
2023-05-17T19:18:04.875Z,1.83
2023-05-17T19:20:33.394Z,1.85
2023-05-17T19:23:04.267Z,2.20
2023-05-17T19:25:30.959Z,1.70
2023-05-17T19:27:57.831Z,2.58
2023-05-17T19:30:24.619Z,1.90
2023-05-17T19:32:51.564Z,1.70
2023-05-17T19:35:18.536Z,2.20
2023-05-17T19:37:45.269Z,2.00
2023-05-17T19:40:12.590Z,2.10
2023-05-17T19:42:39.971Z,2.20
2023-05-17T19:45:12.151Z,2.30
2023-05-17T19:47:39.058Z,2.03
2023-05-17T19:50:06.718Z,2.17
2023-05-17T19:52:33.460Z,1.80
2023-05-17T19:55:00.302Z,2.33
2023-05-17T19:57:27.567Z,2.25
2023-05-17T19:59:54.414Z,1.75
2023-05-17T20:02:21.355Z,2.00
2023-05-17T20:04:48.331Z,2.47
2023-05-17T20:07:16.991Z,1.90
2023-05-17T20:09:43.911Z,2.53
2023-05-17T20:12:10.737Z,2.47
2023-05-17T20:14:38.120Z,1.92
2023-05-17T20:17:04.996Z,3.40
2023-05-17T20:19:31.924Z,3.63
2023-05-17T20:21:58.919Z,2.90
2023-05-17T20:24:28.881Z,2.70
2023-05-17T20:26:57.297Z,2.60
2023-05-17T20:29:24.131Z,3.78
2023-05-17T20:31:51.184Z,4.93
2023-05-17T20:34:18.204Z,5.22
2023-05-17T20:36:45.232Z,9.10
2023-05-17T20:39:12.589Z,4.57
2023-05-17T20:41:39.343Z,4.38
2023-05-17T20:44:06.065Z,4.87
2023-05-17T20:46:33.075Z,2.85
2023-05-17T20:49:00.972Z,3.05
2023-05-17T20:51:27.761Z,2.92
2023-05-17T20:53:54.596Z,2.17
2023-05-17T20:56:21.323Z,3.63
2023-05-17T20:58:48.812Z,3.05
2023-05-17T21:01:15.675Z,2.53
2023-05-17T21:03:43.213Z,2.25
2023-05-17T21:06:10.708Z,2.10
2023-05-17T21:08:38.412Z,1.90
2023-05-17T21:11:05.451Z,1.67
2023-05-17T21:13:32.196Z,1.55
2023-05-17T21:15:59.034Z,1.92
2023-05-17T21:18:25.882Z,2.20
2023-05-17T21:20:53.121Z,2.10
2023-05-17T21:23:20.197Z,1.92
2023-05-17T21:25:47.392Z,2.40
2023-05-17T21:28:14.163Z,2.97
2023-05-17T21:30:40.974Z,2.97
2023-05-17T21:33:07.923Z,3.07
2023-05-17T21:35:34.833Z,2.85
2023-05-17T21:38:01.613Z,2.60
2023-05-17T21:40:28.780Z,2.45
2023-05-17T21:42:55.866Z,2.08
2023-05-17T21:45:22.832Z,2.27
2023-05-17T21:47:49.727Z,1.88
2023-05-17T21:50:16.752Z,2.17
2023-05-17T21:52:43.807Z,2.30
2023-05-17T21:55:10.765Z,2.05
2023-05-17T21:57:37.666Z,2.87
2023-05-17T22:00:05.976Z,2.10
2023-05-17T22:02:34.922Z,2.13
2023-05-17T22:05:01.893Z,2.38
2023-05-17T22:07:28.666Z,2.15
2023-05-17T22:09:55.625Z,2.33
2023-05-17T22:12:25.481Z,2.15
2023-05-17T22:14:56.669Z,2.03
2023-05-17T22:17:35.267Z,1.80
2023-05-17T22:20:11.438Z,2.50
2023-05-17T22:22:38.372Z,2.00
2023-05-17T22:25:06.778Z,2.30
2023-05-17T22:27:33.552Z,2.47
2023-05-17T22:30:00.782Z,2.97
2023-05-17T22:32:27.541Z,2.25
2023-05-17T22:34:55.989Z,2.37
2023-05-17T22:37:23.557Z,2.72
2023-05-17T22:39:50.536Z,1.83
2023-05-17T22:42:17.374Z,2.53
2023-05-17T22:44:44.182Z,2.28
2023-05-17T22:47:14.851Z,1.90
2023-05-17T22:49:42.291Z,2.20
2023-05-17T22:52:10.525Z,1.77
2023-05-17T22:54:39.230Z,1.95
2023-05-17T22:57:06.370Z,2.53
2023-05-17T22:59:33.289Z,2.43
2023-05-17T23:02:01.633Z,2.30
2023-05-17T23:04:30.082Z,2.20
2023-05-17T23:07:02.170Z,2.30
2023-05-17T23:09:33.728Z,2.15
2023-05-17T23:12:05.461Z,2.20
2023-05-17T23:14:36.774Z,1.95
2023-05-17T23:17:04.717Z,2.00
2023-05-17T23:19:35.629Z,2.13
2023-05-17T23:22:02.748Z,1.90
2023-05-17T23:24:29.533Z,2.37
2023-05-17T23:26:56.433Z,2.13
2023-05-17T23:29:23.905Z,2.67
2023-05-17T23:31:50.905Z,1.90
2023-05-17T23:34:17.707Z,2.13
2023-05-17T23:36:44.470Z,2.70
2023-05-17T23:39:11.221Z,2.67
2023-05-17T23:41:37.982Z,2.10
2023-05-17T23:44:05.464Z,2.13
2023-05-17T23:46:32.365Z,2.45
2023-05-17T23:48:59.181Z,2.37
2023-05-17T23:51:26.004Z,2.47
2023-05-17T23:53:52.800Z,2.40
2023-05-17T23:56:19.892Z,2.53
2023-05-17T23:58:47.180Z,2.20
